Terminal Aerodrome Forecast
Issued by NWS Sioux Falls, SD

Home | Current Version | Previous Version | Text Only | Print | Product List | Glossary On
Versions: 1 2 3 4 5 6 7 8 9 10 11 12 13 14 15 16 17 18 19 20 21
237
FTUS43 KFSD 131130
TAFHON
TAF
KHON 131130Z 1312/1412 14010KT P6SM OVC080
     FM131600 14014G21KT P6SM OVC045
     FM132000 15017G24KT P6SM OVC030
     FM132300 15018G28KT 1SM -SN OVC040
     FM140100 15019G28KT 1SM -SN BLSN OVC025
     FM140900 15013G21KT 1 1/2SM -SN OVC010=

USA.gov is the U.S. government's official web portal to all federal, state and local government web resources and services.